Time;durP1;ratioP1;P1;durP2;ratioP2;P2;SDS_P1;SDS_P2;PMS_P1;PMS_P2;Temp;Humidity;BMP_temperature;BMP_pressure;BME280_temperature;BME280_humidity;BME280_pressure;Samples;Min_cycle;Max_cycle;Signal;HPM_P1;HPM_P2
2022/09/26 00:04:49;;;;;;;29.23;21.47;;;;;;;;;;10531406;28;20438;-92
2022/09/26 00:09:50;;;;;;;30.85;22.55;;;;;;;;;;10524811;28;20412;-94
2022/09/26 00:14:52;;;;;;;27.48;21.05;;;;;;;;;;10511074;22;20932;-85
2022/09/26 00:19:56;;;;;;;30.00;21.70;;;;;;;;;;10510932;28;20400;-85
2022/09/26 00:24:58;;;;;;;29.55;22.20;;;;;;;;;;10513410;28;20422;-83
2022/09/26 00:30:00;;;;;;;30.37;23.07;;;;;;;;;;10507806;28;20487;-82
2022/09/26 00:35:03;;;;;;;30.10;22.85;;;;;;;;;;10513052;28;20414;-82
2022/09/26 00:40:05;;;;;;;31.13;23.57;;;;;;;;;;10517296;28;20473;-82
2022/09/26 00:45:09;;;;;;;30.10;22.87;;;;;;;;;;10516825;28;20412;-84
2022/09/26 00:50:18;;;;;;;29.90;22.53;;;;;;;;;;10518533;28;20396;-83
2022/09/26 00:55:23;;;;;;;32.45;23.80;;;;;;;;;;10516388;28;20489;-82
2022/09/26 01:00:26;;;;;;;32.10;22.95;;;;;;;;;;10519843;28;20410;-85
2022/09/26 01:05:31;;;;;;;30.92;22.00;;;;;;;;;;10521178;28;20897;-84
2022/09/26 01:10:35;;;;;;;31.93;22.97;;;;;;;;;;10520602;28;20502;-82
2022/09/26 01:15:37;;;;;;;31.30;22.67;;;;;;;;;;10511678;28;20459;-84
2022/09/26 01:20:51;;;;;;;33.20;22.75;;;;;;;;;;10520513;28;20759;-83
2022/09/26 01:26:18;;;;;;;31.48;23.77;;;;;;;;;;10520047;28;20483;-84
2022/09/26 01:31:28;;;;;;;32.13;24.10;;;;;;;;;;10504742;28;20414;-84
2022/09/26 01:37:00;;;;;;;30.93;23.17;;;;;;;;;;10515862;28;20472;-84
2022/09/26 01:42:11;;;;;;;32.28;24.10;;;;;;;;;;10518510;28;20400;-84
2022/09/26 01:47:18;;;;;;;29.70;23.35;;;;;;;;;;10514303;28;20909;-84
2022/09/26 01:52:27;;;;;;;32.60;23.77;;;;;;;;;;10501337;28;20451;-83
2022/09/26 01:57:33;;;;;;;30.30;23.30;;;;;;;;;;10516693;28;20475;-84
2022/09/26 02:02:41;;;;;;;29.77;22.88;;;;;;;;;;10512548;28;20404;-85
2022/09/26 02:07:47;;;;;;;30.23;22.67;;;;;;;;;;10511012;28;20458;-84
2022/09/26 02:12:54;;;;;;;31.45;23.17;;;;;;;;;;10513750;28;20448;-84
2022/09/26 02:18:04;;;;;;;31.13;22.77;;;;;;;;;;10506996;28;20398;-82
2022/09/26 02:23:07;;;;;;;31.17;22.83;;;;;;;;;;10513441;28;20485;-84
2022/09/26 02:28:09;;;;;;;29.52;22.20;;;;;;;;;;10517303;28;20413;-81
2022/09/26 02:33:13;;;;;;;30.77;22.45;;;;;;;;;;10509312;28;20509;-84
2022/09/26 02:38:16;;;;;;;32.07;23.20;;;;;;;;;;10516375;28;20491;-84
2022/09/26 02:43:39;;;;;;;29.63;22.27;;;;;;;;;;10501328;28;20927;-85
2022/09/26 02:48:54;;;;;;;32.70;24.20;;;;;;;;;;10515477;28;20574;-84
2022/09/26 02:54:15;;;;;;;28.23;21.48;;;;;;;;;;10514495;28;20428;-86
2022/09/26 02:59:21;;;;;;;30.08;20.83;;;;;;;;;;10510651;28;20400;-84
2022/09/26 03:04:35;;;;;;;29.20;20.23;;;;;;;;;;10509567;28;20422;-85
2022/09/26 03:09:37;;;;;;;25.77;19.63;;;;;;;;;;10517569;28;20492;-84
2022/09/26 03:14:42;;;;;;;29.33;21.00;;;;;;;;;;10497340;28;20446;-85
2022/09/26 03:19:47;;;;;;;28.08;19.58;;;;;;;;;;10518176;28;20475;-83
2022/09/26 03:24:49;;;;;;;27.67;20.50;;;;;;;;;;10516729;28;20479;-83
2022/09/26 03:29:51;;;;;;;26.58;20.17;;;;;;;;;;10506437;28;20410;-85
2022/09/26 03:34:55;;;;;;;28.25;21.33;;;;;;;;;;10511535;28;20611;-84
2022/09/26 03:39:56;;;;;;;28.90;20.23;;;;;;;;;;10506896;28;20998;-85
2022/09/26 03:44:58;;;;;;;25.20;19.92;;;;;;;;;;10505202;28;20398;-85
2022/09/26 03:50:01;;;;;;;29.67;22.35;;;;;;;;;;10515191;28;20413;-84
2022/09/26 03:55:04;;;;;;;29.70;21.58;;;;;;;;;;10512241;28;20948;-84
2022/09/26 04:00:07;;;;;;;26.70;19.38;;;;;;;;;;10501122;28;20416;-84
2022/09/26 04:05:10;;;;;;;25.48;19.27;;;;;;;;;;10511613;28;20753;-84
2022/09/26 04:10:12;;;;;;;25.30;18.57;;;;;;;;;;10515289;28;20475;-84
2022/09/26 04:15:14;;;;;;;25.88;18.77;;;;;;;;;;10506004;28;20519;-84
2022/09/26 04:20:18;;;;;;;27.13;19.30;;;;;;;;;;10515993;28;20412;-85
2022/09/26 04:25:19;;;;;;;28.10;19.77;;;;;;;;;;10515307;28;20396;-85
2022/09/26 04:30:21;;;;;;;26.90;19.65;;;;;;;;;;10491818;28;20483;-84
2022/09/26 04:35:26;;;;;;;25.90;19.50;;;;;;;;;;10511056;28;20465;-84
2022/09/26 04:40:27;;;;;;;26.88;18.90;;;;;;;;;;10515454;28;20400;-83
2022/09/26 04:45:30;;;;;;;25.67;19.17;;;;;;;;;;10499425;28;20479;-85
2022/09/26 04:50:33;;;;;;;26.80;18.77;;;;;;;;;;10506836;28;20755;-84
2022/09/26 04:55:35;;;;;;;26.97;18.53;;;;;;;;;;10509711;28;20477;-85
2022/09/26 05:00:37;;;;;;;24.08;18.73;;;;;;;;;;10493187;28;20888;-84
2022/09/26 05:05:42;;;;;;;23.95;18.23;;;;;;;;;;10495581;28;20485;-84
2022/09/26 05:10:45;;;;;;;26.98;19.50;;;;;;;;;;10484384;28;20491;-85
2022/09/26 05:15:48;;;;;;;26.13;18.43;;;;;;;;;;10479735;28;20422;-83
2022/09/26 05:20:52;;;;;;;27.90;19.02;;;;;;;;;;10475623;28;20433;-85
2022/09/26 05:31:25;;;;;;;29.67;20.05;;;;;;;;;;10442696;28;20396;-83
2022/09/26 05:36:28;;;;;;;27.63;19.98;;;;;;;;;;10493030;28;20453;-84
2022/09/26 05:41:31;;;;;;;28.08;20.63;;;;;;;;;;10490891;28;20402;-87
2022/09/26 05:46:35;;;;;;;27.70;21.00;;;;;;;;;;10504404;28;20400;-85
2022/09/26 05:51:40;;;;;;;30.30;21.38;;;;;;;;;;10504871;28;20412;-85
2022/09/26 05:56:42;;;;;;;29.30;21.25;;;;;;;;;;10515431;28;20818;-86
2022/09/26 06:01:45;;;;;;;31.48;21.95;;;;;;;;;;10486096;28;20495;-86
2022/09/26 06:06:50;;;;;;;33.10;23.25;;;;;;;;;;10497444;28;20409;-84
2022/09/26 06:11:51;;;;;;;35.47;23.95;;;;;;;;;;10484405;28;20418;-84
2022/09/26 06:16:53;;;;;;;31.83;22.92;;;;;;;;;;10491818;28;20450;-84
2022/09/26 06:21:56;;;;;;;32.05;21.83;;;;;;;;;;10508931;28;20419;-85
2022/09/26 06:26:58;;;;;;;34.70;23.53;;;;;;;;;;10511673;28;20488;-85
2022/09/26 06:32:00;;;;;;;33.72;22.80;;;;;;;;;;10510054;28;20416;-86
2022/09/26 06:37:04;;;;;;;32.47;22.30;;;;;;;;;;10505010;28;20406;-84
2022/09/26 06:42:06;;;;;;;33.23;21.87;;;;;;;;;;10504727;28;20433;-84
2022/09/26 06:47:08;;;;;;;33.83;22.38;;;;;;;;;;10507129;28;20508;-85
2022/09/26 06:52:12;;;;;;;30.33;21.30;;;;;;;;;;10519366;28;20407;-84
2022/09/26 06:57:14;;;;;;;33.17;21.70;;;;;;;;;;10518388;28;20403;-86
2022/09/26 07:02:16;;;;;;;34.00;22.90;;;;;;;;;;10505110;28;20420;-85
2022/09/26 07:07:19;;;;;;;32.95;22.65;;;;;;;;;;10517328;28;20405;-85
2022/09/26 07:12:23;;;;;;;36.20;23.93;;;;;;;;;;10503512;28;20485;-85
2022/09/26 07:17:25;;;;;;;33.10;23.13;;;;;;;;;;10499839;28;20408;-83
2022/09/26 07:22:28;;;;;;;35.83;24.33;;;;;;;;;;10503834;28;20565;-85
2022/09/26 07:27:30;;;;;;;37.13;24.63;;;;;;;;;;10512099;28;20949;-85
2022/09/26 07:32:32;;;;;;;37.27;24.17;;;;;;;;;;10486183;28;20427;-85
2022/09/26 07:37:36;;;;;;;36.63;22.35;;;;;;;;;;10481569;28;20414;-85
2022/09/26 07:42:37;;;;;;;38.47;23.20;;;;;;;;;;10489483;28;20476;-84
2022/09/26 07:53:15;;;;;;;33.97;21.95;;;;;;;;;;10368287;28;20390;-84
2022/09/26 07:58:16;;;;;;;34.15;22.65;;;;;;;;;;10457742;28;20404;-85
2022/09/26 08:03:19;;;;;;;35.05;22.27;;;;;;;;;;10504645;28;20794;-85
2022/09/26 08:08:22;;;;;;;31.92;21.90;;;;;;;;;;10493934;28;20979;-85
2022/09/26 08:13:25;;;;;;;29.40;19.00;;;;;;;;;;10501456;28;20422;-85
2022/09/26 08:18:26;;;;;;;25.13;17.23;;;;;;;;;;10499972;28;20749;-85
2022/09/26 08:23:30;;;;;;;27.15;17.75;;;;;;;;;;10501784;28;20414;-85
2022/09/26 08:28:31;;;;;;;24.95;16.58;;;;;;;;;;10507519;28;20401;-85
2022/09/26 08:33:36;;;;;;;25.55;16.80;;;;;;;;;;10505698;28;20503;-85
2022/09/26 08:38:40;;;;;;;23.77;16.05;;;;;;;;;;10496123;28;20425;-84
2022/09/26 08:43:51;;;;;;;25.47;16.50;;;;;;;;;;10502652;28;20490;-85
2022/09/26 08:49:07;;;;;;;25.90;17.73;;;;;;;;;;10502143;28;20554;-85
2022/09/26 08:54:15;;;;;;;30.07;19.83;;;;;;;;;;10515608;28;20500;-85
2022/09/26 08:59:25;;;;;;;28.33;19.10;;;;;;;;;;10493460;28;20404;-85
2022/09/26 09:04:37;;;;;;;28.88;19.17;;;;;;;;;;10507481;28;20405;-83
2022/09/26 09:09:40;;;;;;;34.20;20.60;;;;;;;;;;10520162;28;20404;-83
2022/09/26 09:15:02;;;;;;;29.47;19.53;;;;;;;;;;10506945;28;20499;-86
2022/09/26 09:20:15;;;;;;;30.13;19.00;;;;;;;;;;10508294;28;20454;-85
2022/09/26 09:25:23;;;;;;;33.25;20.15;;;;;;;;;;10515484;28;20484;-85
2022/09/26 09:30:28;;;;;;;30.23;18.77;;;;;;;;;;10499556;28;20555;-85
2022/09/26 09:35:37;;;;;;;30.45;18.63;;;;;;;;;;10516047;28;20432;-82
2022/09/26 09:40:44;;;;;;;30.00;19.30;;;;;;;;;;10509478;28;20402;-82
2022/09/26 09:45:48;;;;;;;32.45;18.67;;;;;;;;;;10507797;28;20404;-83
2022/09/26 09:51:04;;;;;;;29.90;19.00;;;;;;;;;;10518529;28;20392;-82
2022/09/26 09:56:18;;;;;;;30.92;20.45;;;;;;;;;;10498816;28;20425;-85
2022/09/26 10:01:27;;;;;;;28.40;19.27;;;;;;;;;;10489532;28;21061;-84
2022/09/26 10:06:31;;;;;;;30.23;20.70;;;;;;;;;;10490878;28;20491;-84
2022/09/26 10:11:41;;;;;;;29.42;19.75;;;;;;;;;;10490677;28;20513;-84
2022/09/26 10:17:20;;;;;;;30.30;20.63;;;;;;;;;;10485758;28;20418;-85
2022/09/26 10:22:31;;;;;;;28.40;20.50;;;;;;;;;;10478470;28;20402;-85
2022/09/26 10:27:37;;;;;;;31.73;21.90;;;;;;;;;;10504230;28;20416;-85
2022/09/26 10:32:46;;;;;;;31.75;22.65;;;;;;;;;;10499260;28;20419;-85
2022/09/26 10:37:57;;;;;;;30.63;22.85;;;;;;;;;;10504152;28;20418;-83
2022/09/26 10:43:19;;;;;;;31.65;23.02;;;;;;;;;;10481938;28;20418;-85
2022/09/26 10:48:29;;;;;;;32.95;22.75;;;;;;;;;;10487896;28;20403;-84
2022/09/26 10:53:36;;;;;;;30.73;22.45;;;;;;;;;;10480214;28;20410;-86
2022/09/26 10:58:50;;;;;;;32.25;22.48;;;;;;;;;;10481419;28;20398;-84
2022/09/26 11:03:55;;;;;;;28.20;21.10;;;;;;;;;;10490475;28;20893;-86
2022/09/26 11:09:02;;;;;;;30.58;21.30;;;;;;;;;;10484719;28;20409;-86
2022/09/26 11:14:07;;;;;;;29.80;21.57;;;;;;;;;;10488156;28;20435;-86
2022/09/26 11:19:18;;;;;;;28.27;21.65;;;;;;;;;;10456004;28;20411;-85
2022/09/26 11:24:24;;;;;;;30.10;20.88;;;;;;;;;;10443168;28;20495;-86
2022/09/26 11:29:42;;;;;;;28.40;20.47;;;;;;;;;;10444845;28;20509;-85
2022/09/26 11:34:45;;;;;;;32.45;22.45;;;;;;;;;;10452605;28;20419;-85
2022/09/26 11:40:04;;;;;;;28.58;22.17;;;;;;;;;;10442802;28;20438;-86
2022/09/26 11:45:20;;;;;;;27.83;21.42;;;;;;;;;;10439970;28;20443;-85
2022/09/26 11:50:38;;;;;;;27.40;20.35;;;;;;;;;;10441075;28;20395;-85
2022/09/26 11:55:57;;;;;;;30.63;22.50;;;;;;;;;;10439823;28;20419;-85
2022/09/26 12:01:13;;;;;;;26.40;19.30;;;;;;;;;;10442397;28;20404;-85
2022/09/26 12:06:25;;;;;;;28.38;21.48;;;;;;;;;;10446554;28;20407;-85
2022/09/26 12:11:36;;;;;;;22.47;18.00;;;;;;;;;;10433782;28;20450;-85
2022/09/26 12:16:48;;;;;;;25.60;20.75;;;;;;;;;;10478621;22;20822;-92
2022/09/26 12:27:42;;;;;;;25.70;20.07;;;;;;;;;;10459658;28;20470;-90
2022/09/26 12:32:57;;;;;;;24.10;18.85;;;;;;;;;;10455356;28;20418;-92
2022/09/26 12:38:15;;;;;;;22.97;17.43;;;;;;;;;;10461997;28;20500;-94
2022/09/26 12:43:53;;;;;;;24.23;18.07;;;;;;;;;;10473809;28;20944;-93
2022/09/26 12:49:17;;;;;;;17.88;14.13;;;;;;;;;;10453220;28;20382;-93
2022/09/26 12:54:40;;;;;;;19.92;15.35;;;;;;;;;;10483013;28;20410;-93
2022/09/26 13:00:08;;;;;;;20.75;16.73;;;;;;;;;;10459584;28;20467;-92
2022/09/26 13:05:52;;;;;;;15.87;13.13;;;;;;;;;;10463078;28;20496;-92
2022/09/26 13:11:09;;;;;;;16.45;13.60;;;;;;;;;;10433097;28;20410;-94
2022/09/26 13:16:30;;;;;;;16.67;13.25;;;;;;;;;;10458994;28;20502;-93
2022/09/26 13:21:44;;;;;;;14.77;12.83;;;;;;;;;;10460662;28;20395;-94
2022/09/26 13:26:53;;;;;;;12.68;11.20;;;;;;;;;;10470233;28;20420;-95
2022/09/26 13:32:01;;;;;;;13.57;12.15;;;;;;;;;;10459639;28;20421;-94
2022/09/26 13:37:06;;;;;;;16.10;12.98;;;;;;;;;;10456683;28;20773;-95
2022/09/26 13:42:17;;;;;;;11.20;9.98;;;;;;;;;;10461311;28;20801;-94
2022/09/26 13:47:32;;;;;;;12.10;10.23;;;;;;;;;;10457377;28;20409;-93
2022/09/26 13:52:51;;;;;;;12.03;10.57;;;;;;;;;;10472494;28;20877;-94
2022/09/26 13:58:06;;;;;;;10.25;9.15;;;;;;;;;;10465191;28;20463;-94
2022/09/26 14:03:38;;;;;;;12.03;10.30;;;;;;;;;;10478415;28;20417;-94
2022/09/26 14:09:24;;;;;;;9.55;8.50;;;;;;;;;;10481424;28;20463;-94
2022/09/26 14:14:39;;;;;;;8.87;7.97;;;;;;;;;;10465990;28;20509;-95
2022/09/26 14:19:43;;;;;;;8.82;7.80;;;;;;;;;;10474469;28;20501;-94
2022/09/26 14:24:46;;;;;;;8.00;7.20;;;;;;;;;;10475125;28;20421;-94
2022/09/26 14:29:51;;;;;;;8.77;7.37;;;;;;;;;;10471359;28;20442;-94
2022/09/26 14:34:59;;;;;;;9.27;8.30;;;;;;;;;;10467862;28;20416;-95
2022/09/26 14:40:15;;;;;;;9.77;8.25;;;;;;;;;;10467584;28;20764;-93
2022/09/26 14:45:25;;;;;;;7.93;7.07;;;;;;;;;;10472906;28;20414;-94
2022/09/26 14:50:30;;;;;;;8.32;6.93;;;;;;;;;;10474027;28;20957;-93
2022/09/26 14:55:32;;;;;;;8.27;7.37;;;;;;;;;;10473545;28;20414;-94
2022/09/26 15:00:39;;;;;;;7.40;5.80;;;;;;;;;;10477601;28;20755;-94
2022/09/26 15:05:42;;;;;;;6.10;5.50;;;;;;;;;;10468888;28;20820;-94
2022/09/26 15:10:47;;;;;;;5.40;4.90;;;;;;;;;;10477292;28;20822;-94
2022/09/26 15:15:58;;;;;;;5.30;4.60;;;;;;;;;;10483224;28;20417;-93
2022/09/26 15:21:05;;;;;;;5.77;5.20;;;;;;;;;;10473408;28;20498;-93
2022/09/26 15:26:08;;;;;;;5.85;5.35;;;;;;;;;;10471521;28;20495;-93
2022/09/26 15:31:27;;;;;;;5.17;4.67;;;;;;;;;;10476962;28;20502;-94
2022/09/26 15:36:31;;;;;;;5.97;5.45;;;;;;;;;;10469077;28;20429;-94
2022/09/26 15:46:54;;;;;;;5.07;4.20;;;;;;;;;;10467049;28;20394;-94
2022/09/26 15:51:57;;;;;;;7.50;5.20;;;;;;;;;;10478136;28;20537;-96
2022/09/26 15:57:01;;;;;;;5.15;4.50;;;;;;;;;;10479534;28;20413;-94
2022/09/26 16:02:21;;;;;;;4.90;4.28;;;;;;;;;;10474683;28;20406;-95
2022/09/26 16:07:26;;;;;;;4.65;4.25;;;;;;;;;;10478407;28;20486;-95
2022/09/26 16:12:30;;;;;;;4.30;3.90;;;;;;;;;;10473253;28;20410;-96
2022/09/26 16:17:36;;;;;;;5.13;4.63;;;;;;;;;;10473649;28;20418;-91
2022/09/26 16:22:44;;;;;;;5.32;4.63;;;;;;;;;;10466223;28;20682;-93
2022/09/26 16:27:48;;;;;;;6.30;4.90;;;;;;;;;;10470596;28;20938;-91
2022/09/26 16:32:52;;;;;;;5.60;5.00;;;;;;;;;;10470350;28;20473;-91
2022/09/26 16:37:58;;;;;;;5.72;5.10;;;;;;;;;;10460385;28;20782;-92
2022/09/26 16:43:03;;;;;;;5.13;4.63;;;;;;;;;;10471655;28;20513;-94
2022/09/26 16:48:26;;;;;;;7.13;4.60;;;;;;;;;;10467548;28;20411;-86
2022/09/26 16:53:28;;;;;;;8.23;6.30;;;;;;;;;;10467486;28;20485;-86
2022/09/26 17:04:33;;;;;;;12.02;9.20;;;;;;;;;;10503512;28;20400;-96
2022/09/26 17:09:35;;;;;;;9.50;6.75;;;;;;;;;;10486461;28;20889;-90
2022/09/26 17:14:40;;;;;;;8.17;6.60;;;;;;;;;;10472160;28;21036;-91
2022/09/26 17:19:45;;;;;;;6.47;5.70;;;;;;;;;;10443749;28;20434;-91
2022/09/26 17:24:48;;;;;;;6.55;5.80;;;;;;;;;;10455298;28;20406;-90
2022/09/26 17:29:52;;;;;;;7.68;6.90;;;;;;;;;;10470470;28;20409;-91
2022/09/26 17:34:56;;;;;;;11.03;7.80;;;;;;;;;;10455922;28;20418;-91
2022/09/26 17:39:58;;;;;;;9.20;8.20;;;;;;;;;;10450163;28;20441;-90
2022/09/26 17:45:00;;;;;;;11.10;9.83;;;;;;;;;;10454951;28;20489;-90
2022/09/26 17:50:05;;;;;;;14.50;10.80;;;;;;;;;;10461562;28;20934;-90
2022/09/26 17:55:08;;;;;;;13.13;11.60;;;;;;;;;;10477702;28;20429;-90
2022/09/26 18:00:14;;;;;;;13.80;11.37;;;;;;;;;;10476049;28;20440;-90
2022/09/26 18:05:24;;;;;;;16.13;12.70;;;;;;;;;;10472751;28;20412;-96
2022/09/26 18:10:29;;;;;;;14.75;12.27;;;;;;;;;;10468413;28;20420;-89
2022/09/26 18:15:31;;;;;;;15.60;12.40;;;;;;;;;;10450978;28;20423;-89
2022/09/26 18:20:37;;;;;;;17.27;13.48;;;;;;;;;;10448652;28;20499;-89
2022/09/26 18:25:39;;;;;;;16.90;13.85;;;;;;;;;;10452318;28;20400;-89
2022/09/26 18:30:46;;;;;;;17.63;13.37;;;;;;;;;;10457223;28;20479;-90
2022/09/26 18:35:50;;;;;;;20.58;15.43;;;;;;;;;;10459726;28;21222;-88
2022/09/26 18:40:54;;;;;;;21.17;16.52;;;;;;;;;;10464354;28;20475;-88
2022/09/26 18:45:56;;;;;;;22.97;16.10;;;;;;;;;;10454509;28;20621;-90
2022/09/26 18:51:00;;;;;;;16.63;12.57;;;;;;;;;;10454121;28;20419;-89
2022/09/26 19:01:27;;;;;;;17.67;13.55;;;;;;;;;;10474866;28;21926;-90
2022/09/26 19:06:34;;;;;;;18.00;13.35;;;;;;;;;;10452415;28;20438;-88
2022/09/26 19:11:36;;;;;;;18.50;12.65;;;;;;;;;;10474002;28;20420;-88
2022/09/26 19:16:38;;;;;;;18.80;13.40;;;;;;;;;;10475078;28;20964;-88
2022/09/26 19:21:42;;;;;;;17.00;11.87;;;;;;;;;;10469937;28;21064;-91
2022/09/26 19:26:48;;;;;;;14.80;10.90;;;;;;;;;;10485589;28;20418;-90
2022/09/26 19:31:50;;;;;;;15.45;10.38;;;;;;;;;;10463186;28;20978;-88
2022/09/26 19:36:54;;;;;;;15.73;10.30;;;;;;;;;;10460776;28;20496;-90
2022/09/26 19:41:56;;;;;;;12.90;10.27;;;;;;;;;;10463826;28;20816;-89
2022/09/26 19:47:01;;;;;;;12.50;9.82;;;;;;;;;;10453042;28;20407;-88
2022/09/26 19:52:10;;;;;;;12.10;9.77;;;;;;;;;;10462054;28;20398;-89
2022/09/26 19:57:15;;;;;;;12.77;9.68;;;;;;;;;;10461207;28;20428;-90
2022/09/26 20:02:19;;;;;;;13.85;9.90;;;;;;;;;;10469931;28;20418;-89
2022/09/26 20:07:22;;;;;;;13.07;9.40;;;;;;;;;;10471142;28;20406;-91
2022/09/26 20:12:24;;;;;;;12.00;9.25;;;;;;;;;;10468235;28;20973;-91
2022/09/26 20:17:28;;;;;;;16.00;10.10;;;;;;;;;;10468936;28;20430;-91
2022/09/26 20:22:31;;;;;;;14.98;10.80;;;;;;;;;;10467485;28;20436;-90
2022/09/26 20:27:33;;;;;;;14.70;10.75;;;;;;;;;;10461064;28;20434;-90
2022/09/26 20:32:36;;;;;;;14.55;10.10;;;;;;;;;;10472325;28;20494;-90
2022/09/26 20:37:41;;;;;;;13.85;10.27;;;;;;;;;;10463163;28;20423;-91
2022/09/26 20:42:44;;;;;;;12.73;8.82;;;;;;;;;;10465252;28;20394;-90
2022/09/26 20:47:46;;;;;;;10.18;7.88;;;;;;;;;;10468448;28;20499;-92
2022/09/26 20:52:50;;;;;;;9.93;7.77;;;;;;;;;;10460093;28;20551;-92
2022/09/26 20:57:52;;;;;;;9.95;7.82;;;;;;;;;;10463667;28;20783;-91
2022/09/26 21:02:55;;;;;;;8.07;5.90;;;;;;;;;;10471765;28;20559;-91
2022/09/26 21:08:00;;;;;;;6.93;6.03;;;;;;;;;;10451640;28;20399;-92
2022/09/26 21:13:02;;;;;;;6.97;5.35;;;;;;;;;;10469466;28;20412;-91
2022/09/26 21:18:04;;;;;;;6.00;5.30;;;;;;;;;;10474712;28;20526;-92
2022/09/26 21:23:10;;;;;;;6.05;4.97;;;;;;;;;;10467415;28;20437;-92
2022/09/26 21:28:22;;;;;;;7.30;5.37;;;;;;;;;;10462703;28;20407;-92
2022/09/26 21:33:24;;;;;;;8.70;6.43;;;;;;;;;;10453760;28;20402;-92
2022/09/26 21:38:27;;;;;;;10.05;7.05;;;;;;;;;;10485404;28;20505;-90
2022/09/26 21:43:40;;;;;;;9.10;6.85;;;;;;;;;;10483170;28;20493;-92
2022/09/26 21:48:42;;;;;;;9.23;6.45;;;;;;;;;;10476672;28;20422;-93
2022/09/26 21:53:48;;;;;;;9.53;7.10;;;;;;;;;;10482541;28;20402;-94
2022/09/26 21:58:51;;;;;;;8.35;6.72;;;;;;;;;;10483409;28;20442;-92
2022/09/26 22:03:55;;;;;;;9.43;7.28;;;;;;;;;;10483196;28;20479;-92
2022/09/26 22:08:58;;;;;;;8.75;7.50;;;;;;;;;;10481958;28;20512;-93
2022/09/26 22:14:00;;;;;;;10.50;8.50;;;;;;;;;;10482517;28;20750;-92
2022/09/26 22:19:03;;;;;;;10.75;8.50;;;;;;;;;;10483038;28;20524;-92
2022/09/26 22:24:07;;;;;;;10.57;7.97;;;;;;;;;;10488197;28;20432;-92
2022/09/26 22:29:09;;;;;;;11.38;8.98;;;;;;;;;;10474759;28;20439;-92
2022/09/26 22:34:11;;;;;;;10.73;8.25;;;;;;;;;;10472781;28;20393;-92
2022/09/26 22:39:15;;;;;;;10.48;8.27;;;;;;;;;;10468751;28;20510;-93
2022/09/26 22:44:17;;;;;;;10.57;8.55;;;;;;;;;;10487939;28;20440;-93
2022/09/26 22:49:19;;;;;;;13.82;9.85;;;;;;;;;;10486517;28;20405;-92
2022/09/26 22:54:22;;;;;;;15.43;10.97;;;;;;;;;;10490511;28;20408;-93
2022/09/26 22:59:24;;;;;;;12.25;9.43;;;;;;;;;;10480644;28;20414;-92
2022/09/26 23:04:45;;;;;;;15.63;9.73;;;;;;;;;;10502990;28;20554;-92
2022/09/26 23:09:49;;;;;;;15.27;9.60;;;;;;;;;;10490202;28;20418;-92
2022/09/26 23:14:50;;;;;;;18.63;12.20;;;;;;;;;;10500609;28;21483;-93
2022/09/26 23:19:53;;;;;;;19.13;12.23;;;;;;;;;;10500519;28;20460;-93
2022/09/26 23:24:56;;;;;;;16.25;11.93;;;;;;;;;;10518224;28;20459;-94
2022/09/26 23:29:58;;;;;;;16.05;11.07;;;;;;;;;;10493710;28;20490;-92
2022/09/26 23:35:00;;;;;;;14.68;10.15;;;;;;;;;;10491601;28;20903;-92
2022/09/26 23:40:03;;;;;;;13.90;9.27;;;;;;;;;;10489850;28;20416;-92
2022/09/26 23:45:06;;;;;;;11.70;9.07;;;;;;;;;;10491093;28;20441;-93
2022/09/26 23:50:09;;;;;;;13.80;9.70;;;;;;;;;;10483821;28;20989;-94
2022/09/26 23:55:12;;;;;;;14.03;8.90;;;;;;;;;;10493736;28;20489;-92
